Carol Stream, Illinois
Current Conditions -  °F | °C
As of 5:52 PM on Friday 19 Dec 2014 (Local Time) from KDPA Reporting Station
Overcast Overcast  
Wind Chill: 22°   Ceiling: 2500
Heat Index: 30°   Visibility: 10mi
Dew Point: 23°   Wind: 8mph
Humidity: 75%   Direction: 350°N
Pressure: 30.28"   Gusts: NA
Location:  41.92°N, 88.12°W
Report Text: KDPA 192352Z 35007KT 10SM OVC025 M01/M05 A3028 RMK AO2 SLP263 T10111050 10000 21011 50009
Loading
Personal Weather Stations






























Interactive Weather Map New forecast layout! Learn more

10-Day Weather Forecast

Advertisements
Track Severe Weather on mobile